createdAt,value
2018-04-24T00:00:01.678Z,78.83
2018-04-24T00:01:01.703Z,78.74
2018-04-24T00:02:01.723Z,78.83
2018-04-24T00:03:01.747Z,79.12
2018-04-24T00:04:01.970Z,79.69
2018-04-24T00:05:01.794Z,79.5
2018-04-24T00:06:01.864Z,79.6
2018-04-24T00:07:01.937Z,79.65
2018-04-24T00:08:01.858Z,79.27
2018-04-24T00:09:01.879Z,79.36
2018-04-24T00:10:01.903Z,80.04
2018-04-24T00:11:01.927Z,79.65
2018-04-24T00:12:01.687Z,80.32
2018-04-24T00:13:01.973Z,80.41
2018-04-24T00:14:01.992Z,80.9
2018-04-24T00:16:02.035Z,81.47
2018-04-24T00:17:02.059Z,80.8
2018-04-24T00:18:02.083Z,80.8
2018-04-24T00:19:02.100Z,81.27
2018-04-24T00:20:02.127Z,81.56
2018-04-24T00:21:02.145Z,80.99
2018-04-24T00:22:02.168Z,80.99
2018-04-24T00:23:16.850Z,81.18
2018-04-24T00:24:02.213Z,81.09
2018-04-24T00:25:02.237Z,80.7
2018-04-24T00:26:02.001Z,81.47
2018-04-24T00:27:02.280Z,81.37
2018-04-24T00:28:02.302Z,81.37
2018-04-24T00:29:02.335Z,81.09
2018-04-24T00:30:02.087Z,81.27
2018-04-24T00:31:02.110Z,81.37
2018-04-24T00:32:02.393Z,81.37
2018-04-24T00:33:02.413Z,81.76
2018-04-24T00:34:02.175Z,81.56
2018-04-24T00:35:02.456Z,81.95
2018-04-24T00:36:02.482Z,82.42
2018-04-24T00:37:02.510Z,82.9
2018-04-24T00:38:02.263Z,82.61
2018-04-24T00:39:17.207Z,82.76
2018-04-24T00:40:02.568Z,83.09
2018-04-24T00:41:02.589Z,82.81
2018-04-24T00:42:02.611Z,82.52
2018-04-24T00:43:02.633Z,82.9
2018-04-24T00:44:02.399Z,82.61
2018-04-24T00:45:02.420Z,82.52
2018-04-24T00:46:02.698Z,83.24
2018-04-24T00:47:02.722Z,83.14
2018-04-24T00:48:02.742Z,83.14
2018-04-24T00:49:02.763Z,83.14
2018-04-24T00:50:02.787Z,83.24
2018-04-24T00:51:02.809Z,83.24
2018-04-24T00:52:02.847Z,83.38
2018-04-24T00:53:02.852Z,83.18
2018-04-24T00:54:02.876Z,83.43
2018-04-24T00:55:17.555Z,82.95
2018-04-24T00:56:02.920Z,83.81
2018-04-24T00:57:02.946Z,84
2018-04-24T00:58:02.962Z,83.91
2018-04-24T00:59:02.724Z,83.43
2018-04-24T01:00:02.747Z,84
2018-04-24T01:02:02.790Z,84
2018-04-24T01:03:02.812Z,84.2
2018-04-24T01:04:02.838Z,84
2018-04-24T01:05:03.117Z,84
2018-04-24T01:06:03.135Z,84.29
2018-04-24T01:07:02.905Z,84.2
2018-04-24T01:08:02.921Z,84.77
2018-04-24T01:09:03.210Z,84.58
2018-04-24T01:10:03.321Z,85.05
2018-04-24T01:11:17.905Z,85.63
2018-04-24T01:13:03.300Z,85.39
2018-04-24T01:14:03.320Z,85.44
2018-04-24T01:15:03.332Z,85.77
2018-04-24T01:16:03.360Z,85.87
2018-04-24T01:17:03.375Z,86.35
2018-04-24T01:18:03.139Z,86.16
2018-04-24T01:19:03.161Z,86.35
2018-04-24T01:20:03.447Z,86.54
2018-04-24T01:21:03.474Z,86.54
2018-04-24T01:22:03.484Z,86.73
2018-04-24T01:23:03.250Z,86.73
2018-04-24T01:24:03.271Z,87.02
2018-04-24T01:25:03.294Z,87.02
2018-04-24T01:26:18.315Z,86.82
2018-04-24T01:27:03.602Z,86.82
2018-04-24T01:28:03.616Z,86.92
2018-04-24T01:29:03.380Z,86.92
2018-04-24T01:30:03.661Z,86.63
2018-04-24T01:31:03.683Z,87.02
2018-04-24T01:32:03.703Z,87.21
2018-04-24T01:33:03.466Z,86.73
2018-04-24T01:34:03.749Z,87.11
2018-04-24T01:35:03.769Z,86.63
2018-04-24T01:36:03.790Z,87.11
2018-04-24T01:37:03.813Z,86.54
2018-04-24T01:38:03.836Z,86.63
2018-04-24T01:39:03.862Z,87.02
2018-04-24T01:40:03.877Z,86.82
2018-04-24T01:41:03.902Z,87.3
2018-04-24T01:42:03.663Z,87.68
2018-04-24T01:43:03.685Z,87.68
2018-04-24T01:44:03.966Z,87.02
2018-04-24T01:45:03.988Z,87.11
2018-04-24T01:46:04.015Z,86.54
2018-04-24T01:47:04.031Z,86.82
2018-04-24T01:49:04.074Z,86.54
2018-04-24T01:50:04.099Z,86.16
2018-04-24T01:51:03.855Z,86.82
2018-04-24T01:52:03.883Z,86.35
2018-04-24T01:53:04.159Z,87.11
2018-04-24T01:54:04.185Z,86.06
2018-04-24T01:55:03.943Z,85.97
2018-04-24T01:56:04.352Z,86.54
2018-04-24T01:57:04.246Z,86.54
2018-04-24T01:58:18.926Z,86.54
2018-04-24T01:59:04.029Z,86.44
2018-04-24T02:00:04.052Z,86.73
2018-04-24T02:01:04.329Z,86.54
2018-04-24T02:02:04.092Z,87.21
2018-04-24T02:03:04.114Z,87.21
2018-04-24T02:04:04.137Z,86.82
2018-04-24T02:05:04.425Z,86.54
2018-04-24T02:06:04.178Z,87.21
2018-04-24T02:08:04.225Z,87.74
2018-04-24T02:09:04.242Z,87.54
2018-04-24T02:10:04.264Z,87.83
2018-04-24T02:11:04.544Z,87.54
2018-04-24T02:12:04.566Z,87.64
2018-04-24T02:13:04.588Z,88.31
2018-04-24T02:14:19.267Z,87.93
2018-04-24T02:15:04.371Z,88.31
2018-04-24T02:16:04.653Z,88.02
2018-04-24T02:17:04.673Z,88.5
2018-04-24T02:18:04.434Z,88.88
2018-04-24T02:19:04.456Z,88.78
2018-04-24T02:21:04.832Z,89.07
2018-04-24T02:22:04.779Z,88.69
2018-04-24T02:23:04.801Z,88.88
2018-04-24T02:24:04.827Z,88.78
2018-04-24T02:25:04.951Z,88.98
2018-04-24T02:26:04.605Z,88.88
2018-04-24T02:27:04.627Z,89.64
2018-04-24T02:28:04.912Z,89.93
2018-04-24T02:29:04.936Z,89.64
2018-04-24T02:30:19.609Z,89.36
2018-04-24T02:31:04.971Z,89.93
2018-04-24T02:32:04.736Z,88.88
2018-04-24T02:34:05.037Z,90.03
2018-04-24T02:35:04.798Z,89.83
2018-04-24T02:37:04.845Z,90.31
2018-04-24T02:38:05.124Z,90.69
2018-04-24T02:39:05.148Z,90.98
2018-04-24T02:40:05.166Z,91.36
2018-04-24T02:42:04.948Z,90.88
2018-04-24T02:43:04.969Z,90.79
2018-04-24T02:44:05.249Z,90.59
2018-04-24T02:45:05.270Z,90.69
2018-04-24T02:46:19.950Z,91.27
2018-04-24T02:47:05.316Z,91.27
2018-04-24T02:48:05.335Z,91.46
2018-04-24T02:49:05.355Z,91.74
2018-04-24T02:50:05.116Z,91.36
2018-04-24T02:51:05.139Z,90.79
2018-04-24T02:52:05.419Z,90.59
2018-04-24T02:53:05.456Z,90.98
2018-04-24T02:55:05.231Z,90.69
2018-04-24T02:56:05.505Z,91.46
2018-04-24T02:57:05.266Z,91.93
2018-04-24T02:58:05.551Z,91.93
2018-04-24T02:59:05.669Z,91.74
2018-04-24T03:00:05.598Z,91.93
2018-04-24T03:01:20.271Z,92.03
2018-04-24T03:02:05.723Z,92.22
2018-04-24T03:03:05.401Z,92.03
2018-04-24T03:04:05.676Z,91.74
2018-04-24T03:05:05.702Z,91.93
2018-04-24T03:06:05.459Z,92.5
2018-04-24T03:07:05.749Z,91.41
2018-04-24T03:08:05.766Z,91.93
2018-04-24T03:09:05.781Z,91.74
2018-04-24T03:10:05.805Z,91.88
2018-04-24T03:11:05.929Z,91.6
2018-04-24T03:12:05.844Z,92.08
2018-04-24T03:13:05.869Z,91.98
2018-04-24T03:14:05.886Z,91.5
2018-04-24T03:15:05.907Z,91.41
2018-04-24T03:16:05.672Z,91.79
2018-04-24T03:17:05.691Z,92.55
2018-04-24T03:18:05.973Z,92.46
2018-04-24T03:19:05.997Z,92.84
2018-04-24T03:20:06.013Z,93.51
2018-04-24T03:21:06.035Z,93.41
2018-04-24T03:22:05.796Z,93.03
2018-04-24T03:23:06.079Z,92.55
2018-04-24T03:24:06.107Z,93.12
2018-04-24T03:25:06.127Z,93.79
2018-04-24T03:26:06.139Z,94.65
2018-04-24T03:27:06.161Z,94.79
2018-04-24T03:28:06.182Z,94.6
2018-04-24T03:29:06.205Z,94.98
2018-04-24T03:30:05.967Z,94.98
2018-04-24T03:31:05.988Z,95.46
2018-04-24T03:32:06.267Z,96.32
2018-04-24T03:33:21.048Z,96.6
2018-04-24T03:34:06.308Z,96.89
2018-04-24T03:35:06.387Z,96.6
2018-04-24T03:36:06.092Z,96.7
2018-04-24T03:37:06.371Z,96.6
2018-04-24T03:38:06.135Z,96.51
2018-04-24T03:39:06.421Z,97.17
2018-04-24T03:40:06.442Z,97.17
2018-04-24T03:42:06.517Z,98.32
2018-04-24T03:44:06.260Z,98.94
2018-04-24T03:45:06.541Z,99.03
2018-04-24T03:46:06.560Z,99.03
2018-04-24T03:47:06.581Z,99.22
2018-04-24T03:48:06.602Z,99.41
2018-04-24T03:49:21.282Z,99.98
2018-04-24T03:50:06.646Z,99.65
2018-04-24T03:51:06.667Z,99.6
2018-04-24T03:52:06.691Z,99.99
2018-04-24T03:53:06.706Z,99.98
2018-04-24T03:54:06.467Z,99.99
2018-04-24T03:55:06.748Z,99.99
2018-04-24T03:56:06.509Z,99.98
2018-04-24T03:57:06.793Z,99.99
2018-04-24T03:59:06.830Z,99.99
2018-04-24T04:00:06.852Z,99.99
2018-04-24T04:01:06.873Z,99.99
2018-04-24T04:02:06.896Z,99.99
2018-04-24T04:03:06.919Z,99.99
2018-04-24T04:04:06.985Z,99.99
2018-04-24T04:05:21.615Z,99.99
2018-04-24T04:06:06.976Z,99.99
2018-04-24T04:07:06.997Z,99.99
2018-04-24T04:08:07.019Z,99.99
2018-04-24T04:09:07.044Z,99.99
2018-04-24T04:10:07.061Z,99.99
2018-04-24T04:11:07.084Z,99.99
2018-04-24T04:12:07.105Z,99.99
2018-04-24T04:13:07.137Z,99.99
2018-04-24T04:15:07.172Z,99.99
2018-04-24T04:16:07.185Z,99.99
2018-04-24T04:17:06.947Z,99.99
2018-04-24T04:18:07.233Z,99.99
2018-04-24T04:19:07.249Z,99.65
2018-04-24T04:20:07.008Z,99.75
2018-04-24T04:21:21.948Z,99.65
2018-04-24T04:22:07.310Z,99.55
2018-04-24T04:23:07.073Z,99.55
2018-04-24T04:24:07.353Z,99.6
2018-04-24T04:25:07.373Z,99.8
2018-04-24T04:26:07.399Z,99.04
2018-04-24T04:27:07.474Z,99.22
2018-04-24T04:28:07.443Z,98.65
2018-04-24T04:29:07.459Z,98.56
2018-04-24T04:30:07.483Z,99.32
2018-04-24T04:31:07.505Z,98.94
2018-04-24T04:32:07.521Z,98.94
2018-04-24T04:33:07.288Z,99.41
2018-04-24T04:34:07.304Z,99.51
2018-04-24T04:35:07.584Z,99.22
2018-04-24T04:36:22.264Z,99.04
2018-04-24T04:37:07.729Z,98.94
2018-04-24T04:38:07.646Z,98.75
2018-04-24T04:39:07.701Z,99.04
2018-04-24T04:41:07.452Z,98.85
2018-04-24T04:42:07.472Z,98.94
2018-04-24T04:43:07.494Z,99.13
2018-04-24T04:44:07.774Z,98.56
2018-04-24T04:45:07.799Z,98.27
2018-04-24T04:46:07.823Z,98.03
2018-04-24T04:47:07.846Z,98.8
2018-04-24T04:48:07.606Z,98.46
2018-04-24T04:49:07.891Z,98.42
2018-04-24T04:50:07.641Z,98.22
2018-04-24T04:51:07.663Z,98.03
2018-04-24T04:52:07.944Z,97.27
2018-04-24T04:53:07.707Z,96.7
2018-04-24T04:54:07.987Z,96.51
2018-04-24T04:55:08.024Z,96.22
2018-04-24T04:56:07.834Z,96.32
2018-04-24T04:57:07.790Z,96.7
2018-04-24T04:58:08.069Z,96.32
2018-04-24T04:59:07.833Z,95.98
2018-04-24T05:01:08.138Z,94.74
2018-04-24T05:02:07.897Z,93.88
2018-04-24T05:03:08.190Z,93.26
2018-04-24T05:04:07.939Z,92.83
2018-04-24T05:05:08.224Z,92.6
2018-04-24T05:06:07.982Z,92.41
2018-04-24T05:07:08.263Z,91.83
2018-04-24T05:08:22.944Z,91.45
2018-04-24T05:09:08.314Z,91.16
2018-04-24T05:10:08.328Z,90.88
2018-04-24T05:11:08.349Z,89.83
2018-04-24T05:12:08.203Z,89.92
2018-04-24T05:13:08.394Z,90.02
2018-04-24T05:14:08.417Z,90.11
2018-04-24T05:15:08.227Z,89.73
2018-04-24T05:16:08.457Z,89.73
2018-04-24T05:17:08.481Z,89.64
2018-04-24T05:18:08.500Z,89.73
2018-04-24T05:19:08.526Z,89.54
2018-04-24T05:20:08.373Z,89.73
2018-04-24T05:21:08.637Z,89.83
2018-04-24T05:22:08.593Z,90.11
2018-04-24T05:23:08.609Z,90.02
2018-04-24T05:24:23.291Z,90.02
2018-04-24T05:25:08.655Z,90.78
2018-04-24T05:26:08.674Z,90.02
2018-04-24T05:27:08.437Z,90.02
2018-04-24T05:28:08.718Z,89.54
2018-04-24T05:29:08.739Z,90.11
2018-04-24T05:32:08.813Z,89.25
2018-04-24T05:33:08.833Z,89.64
2018-04-24T05:34:08.849Z,89.73
2018-04-24T05:35:08.871Z,89.54
2018-04-24T05:36:08.892Z,89.54
2018-04-24T05:37:08.654Z,88.87
2018-04-24T05:38:08.676Z,88.78
2018-04-24T05:39:08.955Z,88.78
2018-04-24T05:40:23.637Z,89.25
2018-04-24T05:41:08.741Z,88.59
2018-04-24T05:42:09.071Z,88.49
2018-04-24T05:43:09.043Z,88.63
2018-04-24T05:44:09.064Z,88.4
2018-04-24T05:45:09.086Z,88.15
2018-04-24T05:46:08.849Z,87.58
2018-04-24T05:48:09.150Z,87.77
2018-04-24T05:49:09.222Z,87.1
2018-04-24T05:51:09.220Z,86.63
2018-04-24T05:52:09.240Z,86.43
2018-04-24T05:53:09.416Z,86.05
2018-04-24T05:54:09.022Z,86.43
2018-04-24T05:55:09.396Z,85.67
2018-04-24T05:56:23.984Z,86.47
2018-04-24T05:57:09.351Z,86.43
2018-04-24T05:58:09.113Z,85.52
2018-04-24T05:59:09.390Z,85.71
2018-04-24T06:00:09.155Z,85.33
2018-04-24T06:01:09.439Z,84.76
2018-04-24T06:02:09.455Z,85.14
2018-04-24T06:03:09.602Z,84.95
2018-04-24T06:04:09.500Z,84.85
2018-04-24T06:05:09.523Z,84.95
2018-04-24T06:06:09.545Z,83.99
2018-04-24T06:07:09.567Z,83.7
2018-04-24T06:08:09.588Z,83.9
2018-04-24T06:09:09.610Z,84.09
2018-04-24T06:10:09.637Z,84.47
2018-04-24T06:11:24.313Z,83.13
2018-04-24T06:12:09.677Z,83.51
2018-04-24T06:13:09.702Z,83.51
2018-04-24T06:14:09.463Z,83.33
2018-04-24T06:15:09.864Z,82.84
2018-04-24T06:16:09.766Z,82.94
2018-04-24T06:17:09.791Z,82.41
2018-04-24T06:19:09.833Z,83.17
2018-04-24T06:20:09.646Z,82.31
2018-04-24T06:22:09.900Z,82.7
2018-04-24T06:23:09.920Z,82.89
2018-04-24T06:24:10.025Z,82.12
2018-04-24T06:25:09.966Z,82.41
2018-04-24T06:26:09.990Z,82.22
2018-04-24T06:27:10.011Z,82.31
2018-04-24T06:28:10.093Z,82.22
2018-04-24T06:29:10.053Z,81.59
2018-04-24T06:30:10.127Z,81.02
2018-04-24T06:31:10.105Z,81.02
2018-04-24T06:33:10.143Z,80.06
2018-04-24T06:34:09.908Z,79.96
2018-04-24T06:36:10.220Z,78.66
2018-04-24T06:37:10.234Z,79.43
2018-04-24T06:38:10.000Z,78.95
2018-04-24T06:39:10.282Z,78.47
2018-04-24T06:40:10.308Z,76.89
2018-04-24T06:41:10.067Z,76.15
2018-04-24T06:42:10.360Z,74.33
2018-04-24T06:43:25.032Z,74.57
2018-04-24T06:44:10.137Z,74.18
2018-04-24T06:45:10.161Z,72.55
2018-04-24T06:46:10.189Z,71.63
2018-04-24T06:47:10.518Z,70.76
2018-04-24T06:48:10.232Z,71.37
2018-04-24T06:49:10.523Z,71.05
2018-04-24T06:51:10.563Z,71.15
2018-04-24T06:52:10.636Z,71.25
2018-04-24T06:53:10.610Z,70.67
2018-04-24T06:54:10.638Z,70.86
2018-04-24T06:55:10.401Z,71.15
2018-04-24T06:56:10.685Z,70.57
2018-04-24T06:57:10.448Z,69.81
2018-04-24T06:58:10.734Z,68.85
2018-04-24T06:59:25.416Z,69.74
2018-04-24T07:00:10.785Z,68.98
2018-04-24T07:01:10.545Z,68.59
2018-04-24T07:02:10.571Z,68.02
2018-04-24T07:03:10.854Z,68.59
2018-04-24T07:04:10.889Z,68.44
2018-04-24T07:05:10.907Z,66.71
2018-04-24T07:06:10.937Z,66.55
2018-04-24T07:08:10.978Z,62.51
2018-04-24T07:09:11.005Z,61.19
2018-04-24T07:10:11.031Z,60.07
2018-04-24T07:11:11.058Z,59.23
2018-04-24T07:12:11.087Z,57.89
2018-04-24T07:13:11.113Z,56.76
2018-04-24T07:14:11.137Z,55.99
2018-04-24T07:15:25.825Z,56.4
2018-04-24T07:16:11.194Z,54.98
2018-04-24T07:17:10.961Z,54.24
2018-04-24T07:18:10.989Z,53.3
2018-04-24T07:19:11.067Z,53.01
2018-04-24T07:20:11.096Z,52.75
2018-04-24T07:21:11.082Z,50.07
2018-04-24T07:22:11.504Z,50.18
2018-04-24T07:23:11.402Z,49.39
2018-04-24T07:24:11.422Z,49.87
2018-04-24T07:25:11.456Z,50.07
2018-04-24T07:26:11.481Z,49.1
2018-04-24T07:27:11.658Z,48.32
2018-04-24T07:28:11.546Z,48.39
2018-04-24T07:29:11.316Z,49.07
2018-04-24T07:30:11.607Z,48.86
2018-04-24T07:31:26.294Z,50.01
2018-04-24T07:32:11.663Z,50.57
2018-04-24T07:33:11.437Z,51.15
2018-04-24T07:34:11.725Z,50.67
2018-04-24T07:35:11.753Z,49.8
2018-04-24T07:36:11.785Z,49.92
2018-04-24T07:39:11.876Z,50.11
2018-04-24T07:40:11.906Z,49.63
2018-04-24T07:41:11.769Z,49.07
2018-04-24T07:42:11.974Z,47.26
2018-04-24T07:43:11.741Z,47.16
2018-04-24T07:44:12.031Z,47.65
2018-04-24T07:45:12.059Z,48.01
2018-04-24T07:46:26.801Z,48.54
2018-04-24T07:47:12.122Z,50.38
2018-04-24T07:48:12.150Z,50.18
2018-04-24T07:49:12.181Z,49.73
2018-04-24T07:50:12.212Z,49.73
2018-04-24T07:51:12.244Z,49.44
2018-04-24T07:53:12.312Z,48.3
2018-04-24T07:54:12.339Z,49.07
2018-04-24T07:55:12.366Z,49.55
2018-04-24T07:56:12.399Z,49.85
2018-04-24T07:57:12.527Z,49.17
2018-04-24T07:58:12.462Z,47.55
2018-04-24T07:59:12.491Z,48.23
2018-04-24T08:00:12.521Z,47.19
2018-04-24T08:01:12.551Z,47.48
2018-04-24T08:02:12.582Z,47.19
2018-04-24T08:03:12.612Z,47.11
2018-04-24T08:04:12.644Z,48.23
2018-04-24T08:05:12.680Z,47.67
2018-04-24T08:06:12.713Z,47.38
2018-04-24T08:08:12.851Z,47.41
2018-04-24T08:11:12.863Z,47.21
2018-04-24T08:12:12.897Z,46.83
2018-04-24T08:13:12.927Z,46.75
2018-04-24T08:14:12.960Z,46.53
2018-04-24T08:15:12.989Z,47.02
2018-04-24T08:16:13.029Z,47
2018-04-24T08:17:13.054Z,47.77
2018-04-24T08:18:27.742Z,47.28
2018-04-24T08:19:13.110Z,47.74
2018-04-24T08:20:13.144Z,47.19
2018-04-24T08:21:12.914Z,47.31
2018-04-24T08:22:13.203Z,47
2018-04-24T08:23:13.239Z,47.11
2018-04-24T08:25:13.318Z,46.92
2018-04-24T08:26:13.338Z,45.78
2018-04-24T08:27:13.359Z,44.62
2018-04-24T08:28:13.399Z,45.59
2018-04-24T08:29:13.421Z,45.76
2018-04-24T08:30:13.452Z,46.42
2018-04-24T08:31:13.488Z,46.42
2018-04-24T08:32:13.514Z,46.88
2018-04-24T08:33:13.545Z,46.37
2018-04-24T08:34:28.241Z,47.6
2018-04-24T08:35:13.607Z,47.6
2018-04-24T08:36:13.641Z,48.18
2018-04-24T08:37:13.667Z,48.11
2018-04-24T08:38:13.439Z,47.43
2018-04-24T08:39:13.730Z,47.55
2018-04-24T08:41:13.788Z,46.8
2018-04-24T08:42:13.821Z,47.16
2018-04-24T08:43:13.852Z,47.16
2018-04-24T08:44:13.963Z,46.12
2018-04-24T08:45:13.653Z,45.64
2018-04-24T08:46:13.713Z,46.34
2018-04-24T08:47:13.976Z,45.4
2018-04-24T08:48:14.010Z,45.95
2018-04-24T08:49:14.040Z,45.66
2018-04-24T08:50:28.725Z,45.86
2018-04-24T08:51:14.094Z,45.35
2018-04-24T08:52:14.125Z,46.49
2018-04-24T08:53:14.156Z,46.95
2018-04-24T08:54:14.189Z,46.66
2018-04-24T08:55:14.215Z,47.14
2018-04-24T08:56:14.251Z,46.39
2018-04-24T08:57:14.275Z,46.3
2018-04-24T08:58:14.307Z,45.98
2018-04-24T08:59:14.437Z,46.27
2018-04-24T09:00:14.365Z,45.11
2018-04-24T09:02:14.419Z,46.23
2018-04-24T09:03:14.448Z,46.15
2018-04-24T09:04:14.482Z,46.51
2018-04-24T09:05:14.505Z,46.61
2018-04-24T09:06:29.194Z,47.38
2018-04-24T09:08:14.593Z,47.63
2018-04-24T09:09:14.621Z,47.94
2018-04-24T09:10:14.649Z,48.79
2018-04-24T09:11:14.675Z,48.33
2018-04-24T09:12:14.444Z,48.23
2018-04-24T09:14:14.501Z,47
2018-04-24T09:15:14.788Z,47.38
2018-04-24T09:17:14.584Z,45.92
2018-04-24T09:19:14.901Z,45.6
2018-04-24T09:20:14.929Z,45.1
2018-04-24T09:21:29.615Z,43.96
2018-04-24T09:22:14.985Z,44.35
2018-04-24T09:23:15.009Z,44.45
2018-04-24T09:24:15.035Z,44.35
2018-04-24T09:25:15.062Z,44.06
2018-04-24T09:26:15.094Z,44.06
2018-04-24T09:27:15.301Z,44.06
2018-04-24T09:28:15.145Z,43.87
2018-04-24T09:30:15.199Z,45.51
2018-04-24T09:31:15.224Z,43.96
2018-04-24T09:32:15.249Z,43.41
2018-04-24T09:33:15.278Z,43.5
2018-04-24T09:34:15.043Z,42.54
2018-04-24T09:35:15.331Z,42.08
2018-04-24T09:36:15.358Z,42.18
2018-04-24T09:37:15.388Z,42.08
2018-04-24T09:38:15.415Z,41.77
2018-04-24T09:39:15.441Z,41.46
2018-04-24T09:40:15.206Z,42.3
2018-04-24T09:41:15.490Z,42.11
2018-04-24T09:42:15.517Z,41.82
2018-04-24T09:43:15.556Z,41.53
2018-04-24T09:44:15.574Z,42.21
2018-04-24T09:45:15.601Z,41.44
2018-04-24T09:46:15.624Z,42.3
2018-04-24T09:47:15.391Z,42.57
2018-04-24T09:48:15.679Z,42.09
2018-04-24T09:49:15.703Z,42.16
2018-04-24T09:50:15.739Z,43.03
2018-04-24T09:52:15.782Z,43.03
2018-04-24T09:53:30.469Z,43.71
2018-04-24T09:54:15.833Z,44.38
2018-04-24T09:55:15.864Z,43.99
2018-04-24T09:56:15.629Z,44.57
2018-04-24T09:57:15.912Z,43.51
2018-04-24T09:58:15.945Z,43.61
2018-04-24T09:59:15.963Z,43.15
2018-04-24T10:00:15.991Z,43.82
2018-04-24T10:01:16.023Z,43.27
2018-04-24T10:02:16.196Z,43.17
2018-04-24T10:03:16.067Z,43.29
2018-04-24T10:04:16.098Z,41.67
2018-04-24T10:05:16.120Z,40.63
2018-04-24T10:06:16.148Z,41.3
2018-04-24T10:07:16.171Z,41.86
2018-04-24T10:08:16.198Z,41.48
2018-04-24T10:09:30.888Z,40.7
2018-04-24T10:10:16.251Z,41.46
2018-04-24T10:11:16.276Z,41.94
2018-04-24T10:12:16.303Z,41.65
2018-04-24T10:13:16.334Z,41.92
2018-04-24T10:14:16.370Z,42.02
2018-04-24T10:15:16.387Z,42.76
2018-04-24T10:16:16.409Z,43.65
2018-04-24T10:17:16.174Z,43.27
2018-04-24T10:18:16.459Z,43.17
2018-04-24T10:19:16.491Z,43.63
2018-04-24T10:20:16.512Z,43.54
2018-04-24T10:21:16.538Z,43.15
2018-04-24T10:22:16.567Z,43.24
2018-04-24T10:23:16.591Z,43.63
2018-04-24T10:24:16.632Z,44.28
2018-04-24T10:25:31.301Z,45.44
2018-04-24T10:26:16.670Z,45.34
2018-04-24T10:28:16.461Z,45.92
2018-04-24T10:29:16.745Z,45.92
2018-04-24T10:30:16.773Z,46.57
2018-04-24T10:31:16.797Z,46.78
2018-04-24T10:32:16.825Z,46.47
2018-04-24T10:33:16.849Z,46.95
2018-04-24T10:34:16.876Z,47.15
2018-04-24T10:35:16.900Z,47.44
2018-04-24T10:36:16.926Z,47.44
2018-04-24T10:37:16.952Z,47.24
2018-04-24T10:38:16.976Z,47.36
2018-04-24T10:39:17.007Z,47.24
2018-04-24T10:40:17.028Z,47.34
2018-04-24T10:41:31.714Z,47.72
2018-04-24T10:42:17.082Z,48.4
2018-04-24T10:43:17.105Z,49.43
2018-04-24T10:44:17.130Z,48.49
2018-04-24T10:45:17.157Z,48.88
2018-04-24T10:46:17.186Z,48.49
2018-04-24T10:47:17.208Z,47.82
2018-04-24T10:48:17.232Z,48.3
2018-04-24T10:49:17.259Z,48.11
2018-04-24T10:50:17.285Z,47.56
2018-04-24T10:51:17.314Z,47.65
2018-04-24T10:52:17.336Z,46.88
2018-04-24T10:53:17.365Z,47.19
2018-04-24T10:54:17.389Z,46.64
2018-04-24T10:55:17.419Z,46.73
2018-04-24T10:56:32.099Z,47.12
2018-04-24T10:57:17.466Z,47.12
2018-04-24T10:58:17.490Z,47.12
2018-04-24T10:59:17.629Z,46.73
2018-04-24T11:00:17.543Z,47.7
2018-04-24T11:01:17.575Z,47.51
2018-04-24T11:02:17.627Z,47.12
2018-04-24T11:03:17.621Z,47.8
2018-04-24T11:04:17.387Z,47.49
2018-04-24T11:05:17.677Z,47.87
2018-04-24T11:06:17.695Z,48.64
2018-04-24T11:07:17.725Z,48.74
2018-04-24T11:08:17.488Z,48.74
2018-04-24T11:09:18.774Z,48.54
2018-04-24T11:10:17.539Z,48.71
2018-04-24T11:11:17.565Z,49.68
2018-04-24T11:12:17.849Z,50.09
2018-04-24T11:13:17.874Z,50.25
2018-04-24T11:14:17.903Z,50.73
2018-04-24T11:15:17.927Z,51.5
2018-04-24T11:16:17.959Z,51.7
2018-04-24T11:17:17.981Z,51.02
2018-04-24T11:18:18.001Z,51.21
2018-04-24T11:19:18.028Z,52.2
2018-04-24T11:20:18.066Z,51.79
2018-04-24T11:21:18.139Z,52.75
2018-04-24T11:22:18.103Z,53.5
2018-04-24T11:23:18.131Z,53.21
2018-04-24T11:24:18.159Z,53.28
2018-04-24T11:25:17.922Z,53.66
2018-04-24T11:26:18.211Z,54.53
2018-04-24T11:27:18.235Z,54.53
2018-04-24T11:28:32.917Z,54.41
2018-04-24T11:29:18.283Z,54.79
2018-04-24T11:30:18.378Z,55.18
2018-04-24T11:31:18.340Z,54.89
2018-04-24T11:32:18.362Z,54.89
2018-04-24T11:33:18.388Z,55.56
2018-04-24T11:34:18.169Z,55.37
2018-04-24T11:35:18.436Z,55.08
2018-04-24T11:36:18.461Z,56.23
2018-04-24T11:37:18.484Z,55.2
2018-04-24T11:38:18.509Z,55.98
2018-04-24T11:39:18.545Z,54.91
2018-04-24T11:40:18.303Z,55.2
2018-04-24T11:41:18.636Z,55.13
2018-04-24T11:43:18.377Z,53.5
2018-04-24T11:44:33.320Z,54.46
2018-04-24T11:45:18.686Z,54.75
2018-04-24T11:46:18.712Z,54.17
2018-04-24T11:47:18.740Z,54.2
2018-04-24T11:48:18.760Z,54.27
2018-04-24T11:50:18.818Z,54.39
2018-04-24T11:51:18.582Z,54.78
2018-04-24T11:52:19.032Z,54.56
2018-04-24T11:53:18.890Z,54.65
2018-04-24T11:55:18.938Z,54.49
2018-04-24T11:56:18.972Z,54
2018-04-24T11:57:18.992Z,53.72
2018-04-24T11:58:19.012Z,55.35
2018-04-24T11:59:18.779Z,55.35
2018-04-24T12:00:33.722Z,54.22
2018-04-24T12:01:19.088Z,54.03
2018-04-24T12:02:19.115Z,54.13
2018-04-24T12:03:19.138Z,54.68
2018-04-24T12:04:19.163Z,54.58
2018-04-24T12:05:19.188Z,54.42
2018-04-24T12:06:19.217Z,55.16
2018-04-24T12:08:19.264Z,55.83
2018-04-24T12:09:19.289Z,55.83
2018-04-24T12:10:19.315Z,56.51
2018-04-24T12:11:19.339Z,56.22
2018-04-24T12:12:19.106Z,56.29
2018-04-24T12:13:19.131Z,57.15
2018-04-24T12:14:19.418Z,58.12
2018-04-24T12:15:19.445Z,58.86
2018-04-24T12:16:34.126Z,58.76
2018-04-24T12:18:19.258Z,59.44
2018-04-24T12:19:19.547Z,59.22
2018-04-24T12:20:19.566Z,59.5
2018-04-24T12:21:19.333Z,59.92
2018-04-24T12:22:19.357Z,59.92
2018-04-24T12:24:19.415Z,59.44
2018-04-24T12:25:19.695Z,57.99
2018-04-24T12:26:19.721Z,57.9
2018-04-24T12:27:19.741Z,58.67
2018-04-24T12:28:19.769Z,58.28
2018-04-24T12:29:19.793Z,59.34
2018-04-24T12:30:19.559Z,59.34
2018-04-24T12:31:34.504Z,57.64
2018-04-24T12:32:19.872Z,57.92
2018-04-24T12:33:19.895Z,58.31
2018-04-24T12:34:19.926Z,57.83
2018-04-24T12:36:19.716Z,58.6
2018-04-24T12:39:19.786Z,59.53
2018-04-24T12:40:20.074Z,58.95
2018-04-24T12:41:20.096Z,59.6
2018-04-24T12:42:20.122Z,59.5
2018-04-24T12:43:19.887Z,59.44
2018-04-24T12:44:19.912Z,60.08
2018-04-24T12:45:20.308Z,59.69
2018-04-24T12:46:20.221Z,60.08
2018-04-24T12:47:20.247Z,59.12
2018-04-24T12:48:20.269Z,59.12
2018-04-24T12:49:20.295Z,58.06
2018-04-24T12:50:20.321Z,58.54
2018-04-24T12:51:20.349Z,58.06
2018-04-24T12:52:20.113Z,57.97
2018-04-24T12:53:25.096Z,57.58
2018-04-24T12:55:20.442Z,58.06
2018-04-24T12:56:20.470Z,57.58
2018-04-24T12:57:20.495Z,57.68
2018-04-24T12:58:20.523Z,57.6
2018-04-24T12:59:20.551Z,57.22
2018-04-24T13:00:20.568Z,57.03
2018-04-24T13:01:20.594Z,56.74
2018-04-24T13:02:20.621Z,57.7
2018-04-24T13:03:35.303Z,57.32
2018-04-24T13:04:20.667Z,57.29
2018-04-24T13:05:20.434Z,58.06
2018-04-24T13:06:20.716Z,58.15
2018-04-24T13:07:20.742Z,58.73
2018-04-24T13:08:20.768Z,59.95
2018-04-24T13:09:20.793Z,59.76
2018-04-24T13:11:20.583Z,60.34
2018-04-24T13:12:20.608Z,60.69
2018-04-24T13:13:20.892Z,60.98
2018-04-24T13:14:20.916Z,61.65
2018-04-24T13:15:20.683Z,62.04
2018-04-24T13:16:20.968Z,62.81
2018-04-24T13:17:20.993Z,63.38
2018-04-24T13:18:21.016Z,63.19
2018-04-24T13:19:35.700Z,63.19
2018-04-24T13:20:21.069Z,64.15
2018-04-24T13:21:21.090Z,64.02
2018-04-24T13:22:21.113Z,64.59
2018-04-24T13:23:20.879Z,64.69
2018-04-24T13:24:20.905Z,64.69
2018-04-24T13:25:21.191Z,65.17
2018-04-24T13:27:21.242Z,66.1
2018-04-24T13:28:21.263Z,66.49
2018-04-24T13:29:21.286Z,67.92
2018-04-24T13:30:21.052Z,68.59
2018-04-24T13:31:21.516Z,68.98
2018-04-24T13:32:21.358Z,70.51
2018-04-24T13:33:21.124Z,70.99
2018-04-24T13:34:21.407Z,71.28
2018-04-24T13:35:36.091Z,72.33
2018-04-24T13:36:21.455Z,72.3
2018-04-24T13:37:21.223Z,72.2
2018-04-24T13:38:21.510Z,72.2
2018-04-24T13:39:21.528Z,71.92
2018-04-24T13:40:21.552Z,73.41
2018-04-24T13:41:21.590Z,73.41
2018-04-24T13:43:21.632Z,74.57
2018-04-24T13:44:21.652Z,74.85
2018-04-24T13:45:21.674Z,74.95
2018-04-24T13:46:21.697Z,76
2018-04-24T13:47:21.722Z,76
2018-04-24T13:48:21.747Z,77.06
2018-04-24T13:49:21.771Z,76.86
2018-04-24T13:50:21.795Z,75.43
2018-04-24T13:51:36.478Z,75.52